Terminal Aerodrome Forecast
Issued by NWS

Home | Current Version | Previous Version | Text Only | Print | Product List | Glossary On
Versions: 1 2 3 4 5 6 7 8 9 10 11 12 13 14 15 16 17 18 19 20 21 22 23 24
000
FTUS41 KALY 160500
TAFPSF
TAF
KPSF 160520Z 1606/1706 00000KT P6SM OVC080
     FM160900 00000KT P6SM -SHRA OVC045
      TEMPO 1609/1612 5SM -SHRA BR OVC025
     FM161300 27004KT P6SM BKN025
     FM161700 29007KT P6SM SCT025 SCT040
     FM170000 00000KT P6SM SKC=

USA.gov is the U.S. government's official web portal to all federal, state and local government web resources and services.